sensor_id;sensor_type;location;lat;lon;timestamp;pressure;altitude;pressure_sealevel;temperature;humidity
49072;BME280;74284;52.610;10.236;2023-11-21T00:01:25;100482.09;;;10.88;nan
49072;BME280;74284;52.610;10.236;2023-11-21T00:03:50;100492.50;;;10.93;nan
49072;BME280;74284;52.610;10.236;2023-11-21T00:06:15;100493.88;;;11.02;nan
49072;BME280;74284;52.610;10.236;2023-11-21T00:08:41;100482.94;;;11.09;nan
49072;BME280;74284;52.610;10.236;2023-11-21T00:11:06;100490.16;;;11.06;nan
49072;BME280;74284;52.610;10.236;2023-11-21T00:13:32;100493.53;;;11.09;nan
49072;BME280;74284;52.610;10.236;2023-11-21T00:15:58;100490.78;;;11.11;nan
49072;BME280;74284;52.610;10.236;2023-11-21T00:18:23;100489.50;;;11.19;nan
49072;BME280;74284;52.610;10.236;2023-11-21T00:20:48;100491.94;;;11.05;nan
49072;BME280;74284;52.610;10.236;2023-11-21T00:23:14;100496.09;;;11.31;nan
49072;BME280;74284;52.610;10.236;2023-11-21T00:25:39;100502.50;;;11.26;nan
49072;BME280;74284;52.610;10.236;2023-11-21T00:28:05;100499.44;;;11.35;nan
49072;BME280;74284;52.610;10.236;2023-11-21T00:30:31;100501.72;;;11.24;nan
49072;BME280;74284;52.610;10.236;2023-11-21T00:32:56;100503.81;;;11.36;nan
49072;BME280;74284;52.610;10.236;2023-11-21T00:35:22;100493.09;;;11.18;nan
49072;BME280;74284;52.610;10.236;2023-11-21T00:37:47;100505.50;;;11.18;nan
49072;BME280;74284;52.610;10.236;2023-11-21T00:40:15;100499.38;;;11.16;nan
49072;BME280;74284;52.610;10.236;2023-11-21T00:42:40;100497.38;;;11.23;nan
49072;BME280;74284;52.610;10.236;2023-11-21T00:45:06;100495.97;;;11.14;nan
49072;BME280;74284;52.610;10.236;2023-11-21T00:47:31;100500.97;;;11.20;nan
49072;BME280;74284;52.610;10.236;2023-11-21T00:49:57;100498.75;;;11.11;nan
49072;BME280;74284;52.610;10.236;2023-11-21T00:52:22;100505.84;;;11.10;nan
49072;BME280;74284;52.610;10.236;2023-11-21T00:54:47;100503.72;;;11.18;nan
49072;BME280;74284;52.610;10.236;2023-11-21T00:57:13;100511.13;;;11.31;nan
49072;BME280;74284;52.610;10.236;2023-11-21T00:59:38;100507.22;;;11.19;nan
49072;BME280;74284;52.610;10.236;2023-11-21T01:02:03;100510.53;;;11.24;nan
49072;BME280;74284;52.610;10.236;2023-11-21T01:04:30;100517.19;;;11.14;nan
49072;BME280;74284;52.610;10.236;2023-11-21T01:06:57;100522.09;;;11.23;nan
49072;BME280;74284;52.610;10.236;2023-11-21T01:09:22;100512.84;;;11.32;nan
49072;BME280;74284;52.610;10.236;2023-11-21T01:11:47;100523.81;;;11.24;nan
49072;BME280;74284;52.610;10.236;2023-11-21T01:14:13;100519.75;;;11.15;nan
49072;BME280;74284;52.610;10.236;2023-11-21T01:16:38;100519.63;;;11.18;nan
49072;BME280;74284;52.610;10.236;2023-11-21T01:19:04;100521.41;;;11.18;nan
49072;BME280;74284;52.610;10.236;2023-11-21T01:21:29;100521.06;;;11.26;nan
49072;BME280;74284;52.610;10.236;2023-11-21T01:23:55;100524.66;;;11.25;nan
49072;BME280;74284;52.610;10.236;2023-11-21T01:26:21;100528.34;;;11.20;nan
49072;BME280;74284;52.610;10.236;2023-11-21T01:28:46;100529.28;;;11.19;nan
49072;BME280;74284;52.610;10.236;2023-11-21T01:31:14;100532.72;;;11.21;nan
49072;BME280;74284;52.610;10.236;2023-11-21T01:33:39;100532.47;;;11.28;nan
49072;BME280;74284;52.610;10.236;2023-11-21T01:36:05;100539.97;;;11.18;nan
49072;BME280;74284;52.610;10.236;2023-11-21T01:38:30;100537.56;;;11.12;nan
49072;BME280;74284;52.610;10.236;2023-11-21T01:40:57;100544.66;;;11.11;nan
49072;BME280;74284;52.610;10.236;2023-11-21T01:43:22;100543.69;;;11.14;nan
49072;BME280;74284;52.610;10.236;2023-11-21T01:45:47;100543.94;;;11.08;nan
49072;BME280;74284;52.610;10.236;2023-11-21T01:48:13;100543.88;;;11.09;nan
49072;BME280;74284;52.610;10.236;2023-11-21T01:50:39;100544.66;;;11.11;nan
49072;BME280;74284;52.610;10.236;2023-11-21T01:53:05;100551.19;;;10.84;nan
49072;BME280;74284;52.610;10.236;2023-11-21T01:55:32;100552.63;;;10.72;nan
49072;BME280;74284;52.610;10.236;2023-11-21T01:57:59;100546.63;;;10.67;nan
49072;BME280;74284;52.610;10.236;2023-11-21T02:00:25;100550.22;;;10.66;nan
49072;BME280;74284;52.610;10.236;2023-11-21T02:02:53;100554.44;;;10.70;nan
49072;BME280;74284;52.610;10.236;2023-11-21T02:05:18;100552.53;;;10.74;nan
49072;BME280;74284;52.610;10.236;2023-11-21T02:07:45;100548.69;;;10.81;nan
49072;BME280;74284;52.610;10.236;2023-11-21T02:10:13;100549.47;;;10.42;nan
49072;BME280;74284;52.610;10.236;2023-11-21T02:12:42;100562.63;;;10.43;nan
49072;BME280;74284;52.610;10.236;2023-11-21T02:15:13;100561.63;;;10.26;nan
49072;BME280;74284;52.610;10.236;2023-11-21T02:17:51;100560.72;;;10.27;nan
49072;BME280;74284;52.610;10.236;2023-11-21T02:20:19;100567.09;;;10.43;nan
49072;BME280;74284;52.610;10.236;2023-11-21T02:22:52;100570.66;;;10.62;nan
49072;BME280;74284;52.610;10.236;2023-11-21T02:25:31;100576.25;;;10.77;nan
49072;BME280;74284;52.610;10.236;2023-11-21T02:27:58;100577.03;;;10.79;nan
49072;BME280;74284;52.610;10.236;2023-11-21T02:30:25;100573.34;;;10.83;nan
49072;BME280;74284;52.610;10.236;2023-11-21T02:32:51;100575.56;;;10.92;nan
49072;BME280;74284;52.610;10.236;2023-11-21T02:35:18;100576.22;;;10.97;nan
49072;BME280;74284;52.610;10.236;2023-11-21T02:37:46;100569.22;;;10.96;nan
49072;BME280;74284;52.610;10.236;2023-11-21T02:40:11;100573.19;;;11.06;nan
49072;BME280;74284;52.610;10.236;2023-11-21T02:42:38;100576.34;;;10.94;nan
49072;BME280;74284;52.610;10.236;2023-11-21T02:45:03;100577.16;;;10.96;nan
49072;BME280;74284;52.610;10.236;2023-11-21T02:47:30;100577.66;;;10.85;nan
49072;BME280;74284;52.610;10.236;2023-11-21T02:49:55;100576.31;;;10.95;nan
49072;BME280;74284;52.610;10.236;2023-11-21T02:52:21;100570.59;;;10.84;nan
49072;BME280;74284;52.610;10.236;2023-11-21T02:54:46;100582.13;;;10.83;nan
49072;BME280;74284;52.610;10.236;2023-11-21T02:57:12;100579.28;;;10.88;nan
49072;BME280;74284;52.610;10.236;2023-11-21T02:59:37;100584.50;;;10.89;nan
49072;BME280;74284;52.610;10.236;2023-11-21T03:02:02;100592.19;;;10.75;nan
49072;BME280;74284;52.610;10.236;2023-11-21T03:04:27;100584.78;;;10.83;nan
49072;BME280;74284;52.610;10.236;2023-11-21T03:06:53;100593.78;;;10.79;nan
49072;BME280;74284;52.610;10.236;2023-11-21T03:09:18;100588.28;;;10.84;nan
49072;BME280;74284;52.610;10.236;2023-11-21T03:11:43;100592.81;;;10.82;nan
49072;BME280;74284;52.610;10.236;2023-11-21T03:14:09;100598.50;;;10.73;nan
49072;BME280;74284;52.610;10.236;2023-11-21T03:16:34;100600.72;;;10.61;nan
49072;BME280;74284;52.610;10.236;2023-11-21T03:19:00;100599.47;;;10.50;nan
49072;BME280;74284;52.610;10.236;2023-11-21T03:21:25;100600.56;;;10.44;nan
49072;BME280;74284;52.610;10.236;2023-11-21T03:23:51;100602.13;;;10.50;nan
49072;BME280;74284;52.610;10.236;2023-11-21T03:26:17;100610.47;;;10.40;nan
49072;BME280;74284;52.610;10.236;2023-11-21T03:28:42;100615.00;;;10.37;nan
49072;BME280;74284;52.610;10.236;2023-11-21T03:31:08;100615.56;;;10.45;nan
49072;BME280;74284;52.610;10.236;2023-11-21T03:33:34;100621.84;;;10.42;nan
49072;BME280;74284;52.610;10.236;2023-11-21T03:36:00;100629.09;;;10.59;nan
49072;BME280;74284;52.610;10.236;2023-11-21T03:38:25;100628.50;;;10.73;nan
49072;BME280;74284;52.610;10.236;2023-11-21T03:40:51;100634.13;;;10.65;nan
49072;BME280;74284;52.610;10.236;2023-11-21T03:43:16;100638.38;;;10.69;nan
49072;BME280;74284;52.610;10.236;2023-11-21T03:45:41;100636.06;;;10.82;nan
49072;BME280;74284;52.610;10.236;2023-11-21T03:48:07;100633.63;;;10.78;nan
49072;BME280;74284;52.610;10.236;2023-11-21T03:50:32;100644.94;;;10.81;nan
49072;BME280;74284;52.610;10.236;2023-11-21T03:52:58;100645.81;;;10.82;nan
49072;BME280;74284;52.610;10.236;2023-11-21T03:55:23;100648.38;;;10.83;nan
49072;BME280;74284;52.610;10.236;2023-11-21T03:57:50;100641.41;;;10.81;nan
49072;BME280;74284;52.610;10.236;2023-11-21T04:00:16;100645.38;;;10.70;nan
49072;BME280;74284;52.610;10.236;2023-11-21T04:02:42;100651.09;;;10.82;nan
49072;BME280;74284;52.610;10.236;2023-11-21T04:05:07;100652.81;;;10.83;nan
49072;BME280;74284;52.610;10.236;2023-11-21T04:07:34;100655.66;;;10.78;nan
49072;BME280;74284;52.610;10.236;2023-11-21T04:09:59;100661.44;;;10.88;nan
49072;BME280;74284;52.610;10.236;2023-11-21T04:12:25;100656.44;;;10.80;nan
49072;BME280;74284;52.610;10.236;2023-11-21T04:14:50;100659.09;;;10.80;nan
49072;BME280;74284;52.610;10.236;2023-11-21T04:17:17;100672.84;;;10.90;nan
49072;BME280;74284;52.610;10.236;2023-11-21T04:19:43;100668.53;;;10.87;nan
49072;BME280;74284;52.610;10.236;2023-11-21T04:22:08;100671.56;;;10.78;nan
49072;BME280;74284;52.610;10.236;2023-11-21T04:24:33;100685.84;;;10.54;nan
49072;BME280;74284;52.610;10.236;2023-11-21T04:26:58;100684.28;;;10.48;nan
49072;BME280;74284;52.610;10.236;2023-11-21T04:29:24;100683.19;;;10.32;nan
49072;BME280;74284;52.610;10.236;2023-11-21T04:31:49;100693.97;;;10.26;nan
49072;BME280;74284;52.610;10.236;2023-11-21T04:34:14;100704.19;;;9.89;nan
49072;BME280;74284;52.610;10.236;2023-11-21T04:36:40;100710.41;;;9.40;nan
49072;BME280;74284;52.610;10.236;2023-11-21T04:39:05;100725.00;;;9.00;nan
49072;BME280;74284;52.610;10.236;2023-11-21T04:41:31;100727.25;;;8.84;nan
49072;BME280;74284;52.610;10.236;2023-11-21T04:43:57;100725.78;;;8.49;nan
49072;BME280;74284;52.610;10.236;2023-11-21T04:46:22;100726.00;;;8.96;nan
49072;BME280;74284;52.610;10.236;2023-11-21T04:48:47;100749.50;;;8.20;nan
49072;BME280;74284;52.610;10.236;2023-11-21T04:51:12;100746.28;;;8.39;nan
49072;BME280;74284;52.610;10.236;2023-11-21T04:53:38;100748.06;;;8.39;nan
49072;BME280;74284;52.610;10.236;2023-11-21T04:56:04;100752.69;;;8.01;nan
49072;BME280;74284;52.610;10.236;2023-11-21T04:58:31;100763.16;;;7.73;nan
49072;BME280;74284;52.610;10.236;2023-11-21T05:00:57;100771.31;;;7.64;nan
49072;BME280;74284;52.610;10.236;2023-11-21T05:03:22;100765.34;;;7.57;nan
49072;BME280;74284;52.610;10.236;2023-11-21T05:05:49;100778.84;;;7.78;nan
49072;BME280;74284;52.610;10.236;2023-11-21T05:08:14;100779.00;;;7.72;nan
49072;BME280;74284;52.610;10.236;2023-11-21T05:10:39;100786.91;;;8.04;nan
49072;BME280;74284;52.610;10.236;2023-11-21T05:13:05;100793.31;;;7.94;nan
49072;BME280;74284;52.610;10.236;2023-11-21T05:15:35;100792.16;;;7.40;nan
49072;BME280;74284;52.610;10.236;2023-11-21T05:18:00;100802.84;;;7.34;nan
49072;BME280;74284;52.610;10.236;2023-11-21T05:20:25;100810.69;;;7.37;nan
49072;BME280;74284;52.610;10.236;2023-11-21T05:22:50;100804.66;;;6.97;nan
49072;BME280;74284;52.610;10.236;2023-11-21T05:25:16;100815.94;;;6.64;nan
49072;BME280;74284;52.610;10.236;2023-11-21T05:27:45;100813.78;;;6.82;nan
49072;BME280;74284;52.610;10.236;2023-11-21T05:30:13;100816.75;;;7.05;nan
49072;BME280;74284;52.610;10.236;2023-11-21T05:32:39;100818.56;;;6.64;nan
49072;BME280;74284;52.610;10.236;2023-11-21T05:35:05;100827.22;;;6.70;nan
49072;BME280;74284;52.610;10.236;2023-11-21T05:37:37;100827.44;;;6.60;nan
49072;BME280;74284;52.610;10.236;2023-11-21T05:40:04;100836.66;;;6.39;nan
49072;BME280;74284;52.610;10.236;2023-11-21T05:42:32;100842.53;;;6.91;nan
49072;BME280;74284;52.610;10.236;2023-11-21T05:44:57;100845.97;;;6.56;nan
49072;BME280;74284;52.610;10.236;2023-11-21T05:47:24;100843.38;;;7.64;nan
49072;BME280;74284;52.610;10.236;2023-11-21T05:49:51;100838.47;;;9.03;nan
49072;BME280;74284;52.610;10.236;2023-11-21T05:52:17;100838.34;;;9.08;nan
49072;BME280;74284;52.610;10.236;2023-11-21T05:54:43;100841.56;;;9.17;nan
49072;BME280;74284;52.610;10.236;2023-11-21T05:57:08;100845.31;;;9.10;nan
49072;BME280;74284;52.610;10.236;2023-11-21T05:59:34;100845.41;;;9.60;nan
49072;BME280;74284;52.610;10.236;2023-11-21T06:01:59;100849.03;;;9.58;nan
49072;BME280;74284;52.610;10.236;2023-11-21T06:04:24;100855.84;;;9.38;nan
49072;BME280;74284;52.610;10.236;2023-11-21T06:06:51;100852.78;;;9.77;nan
49072;BME280;74284;52.610;10.236;2023-11-21T06:09:17;100858.56;;;9.63;nan
49072;BME280;74284;52.610;10.236;2023-11-21T06:11:42;100862.22;;;9.59;nan
49072;BME280;74284;52.610;10.236;2023-11-21T06:14:08;100866.34;;;9.41;nan
49072;BME280;74284;52.610;10.236;2023-11-21T06:16:34;100866.81;;;9.53;nan
49072;BME280;74284;52.610;10.236;2023-11-21T06:19:00;100870.94;;;9.61;nan
49072;BME280;74284;52.610;10.236;2023-11-21T06:21:26;100876.69;;;9.74;nan
49072;BME280;74284;52.610;10.236;2023-11-21T06:23:51;100881.66;;;9.30;nan
49072;BME280;74284;52.610;10.236;2023-11-21T06:26:18;100877.69;;;9.45;nan
49072;BME280;74284;52.610;10.236;2023-11-21T06:28:43;100890.78;;;9.48;nan
49072;BME280;74284;52.610;10.236;2023-11-21T06:31:09;100891.00;;;9.42;nan
49072;BME280;74284;52.610;10.236;2023-11-21T06:33:35;100896.13;;;9.73;nan
49072;BME280;74284;52.610;10.236;2023-11-21T06:36:01;100894.75;;;9.88;nan
49072;BME280;74284;52.610;10.236;2023-11-21T06:38:29;100906.06;;;9.93;nan
49072;BME280;74284;52.610;10.236;2023-11-21T06:40:58;100902.13;;;10.05;nan
49072;BME280;74284;52.610;10.236;2023-11-21T06:43:24;100906.91;;;9.67;nan
49072;BME280;74284;52.610;10.236;2023-11-21T06:45:49;100914.41;;;9.54;nan
49072;BME280;74284;52.610;10.236;2023-11-21T06:48:14;100920.34;;;9.61;nan
49072;BME280;74284;52.610;10.236;2023-11-21T06:50:40;100922.75;;;9.67;nan
49072;BME280;74284;52.610;10.236;2023-11-21T06:53:06;100932.00;;;9.27;nan
49072;BME280;74284;52.610;10.236;2023-11-21T06:55:32;100940.09;;;9.21;nan
49072;BME280;74284;52.610;10.236;2023-11-21T06:57:58;100932.44;;;9.41;nan
49072;BME280;74284;52.610;10.236;2023-11-21T07:00:25;100943.03;;;9.12;nan
49072;BME280;74284;52.610;10.236;2023-11-21T07:02:52;100953.13;;;8.99;nan
49072;BME280;74284;52.610;10.236;2023-11-21T07:05:18;100968.22;;;9.24;nan
49072;BME280;74284;52.610;10.236;2023-11-21T07:07:46;100966.44;;;9.24;nan
49072;BME280;74284;52.610;10.236;2023-11-21T07:10:11;100969.53;;;9.38;nan
49072;BME280;74284;52.610;10.236;2023-11-21T07:12:36;100969.81;;;9.29;nan
49072;BME280;74284;52.610;10.236;2023-11-21T07:15:03;100976.78;;;9.04;nan
49072;BME280;74284;52.610;10.236;2023-11-21T07:17:30;100985.56;;;9.04;nan
49072;BME280;74284;52.610;10.236;2023-11-21T07:19:56;100983.41;;;8.87;nan
49072;BME280;74284;52.610;10.236;2023-11-21T07:22:22;100990.75;;;9.35;nan
49072;BME280;74284;52.610;10.236;2023-11-21T07:24:50;100990.59;;;9.12;nan
49072;BME280;74284;52.610;10.236;2023-11-21T07:27:19;100984.31;;;8.86;nan
49072;BME280;74284;52.610;10.236;2023-11-21T07:29:44;100991.78;;;9.02;nan
49072;BME280;74284;52.610;10.236;2023-11-21T07:32:10;100992.50;;;9.08;nan
49072;BME280;74284;52.610;10.236;2023-11-21T07:34:36;100994.88;;;9.46;nan
49072;BME280;74284;52.610;10.236;2023-11-21T07:37:02;100996.72;;;9.14;nan
49072;BME280;74284;52.610;10.236;2023-11-21T07:39:28;101005.25;;;8.61;nan
49072;BME280;74284;52.610;10.236;2023-11-21T07:41:53;101009.25;;;8.76;nan
49072;BME280;74284;52.610;10.236;2023-11-21T07:44:19;101004.63;;;8.84;nan
49072;BME280;74284;52.610;10.236;2023-11-21T07:46:45;101015.31;;;8.80;nan
49072;BME280;74284;52.610;10.236;2023-11-21T07:49:10;101026.13;;;9.02;nan
49072;BME280;74284;52.610;10.236;2023-11-21T07:51:36;101027.72;;;9.07;nan
49072;BME280;74284;52.610;10.236;2023-11-21T07:54:01;101026.63;;;8.54;nan
49072;BME280;74284;52.610;10.236;2023-11-21T07:56:26;101037.00;;;8.60;nan
49072;BME280;74284;52.610;10.236;2023-11-21T07:58:52;101041.84;;;8.75;nan
49072;BME280;74284;52.610;10.236;2023-11-21T08:01:17;101049.72;;;9.08;nan
49072;BME280;74284;52.610;10.236;2023-11-21T08:03:43;101042.50;;;9.14;nan
49072;BME280;74284;52.610;10.236;2023-11-21T08:06:09;101052.41;;;8.75;nan
49072;BME280;74284;52.610;10.236;2023-11-21T08:08:34;101059.34;;;8.79;nan
49072;BME280;74284;52.610;10.236;2023-11-21T08:11:00;101060.88;;;8.88;nan
49072;BME280;74284;52.610;10.236;2023-11-21T08:13:28;101070.34;;;8.62;nan
49072;BME280;74284;52.610;10.236;2023-11-21T08:15:54;101073.59;;;8.41;nan
49072;BME280;74284;52.610;10.236;2023-11-21T08:18:21;101072.63;;;8.44;nan
49072;BME280;74284;52.610;10.236;2023-11-21T08:20:46;101067.88;;;8.90;nan
49072;BME280;74284;52.610;10.236;2023-11-21T08:23:14;101073.28;;;8.52;nan
49072;BME280;74284;52.610;10.236;2023-11-21T08:25:40;101082.88;;;8.56;nan
49072;BME280;74284;52.610;10.236;2023-11-21T08:28:07;101091.38;;;8.33;nan
49072;BME280;74284;52.610;10.236;2023-11-21T08:30:32;101093.75;;;8.06;nan
49072;BME280;74284;52.610;10.236;2023-11-21T08:32:58;101095.13;;;8.58;nan
49072;BME280;74284;52.610;10.236;2023-11-21T08:35:24;101104.50;;;8.36;nan
49072;BME280;74284;52.610;10.236;2023-11-21T08:37:52;101115.66;;;8.10;nan
49072;BME280;74284;52.610;10.236;2023-11-21T08:40:18;101115.13;;;8.33;nan
49072;BME280;74284;52.610;10.236;2023-11-21T08:42:45;101107.94;;;8.74;nan
49072;BME280;74284;52.610;10.236;2023-11-21T08:45:11;101115.41;;;8.56;nan
49072;BME280;74284;52.610;10.236;2023-11-21T08:47:38;101115.47;;;8.55;nan
49072;BME280;74284;52.610;10.236;2023-11-21T08:50:04;101112.53;;;8.98;nan
49072;BME280;74284;52.610;10.236;2023-11-21T08:52:31;101120.22;;;8.40;nan
49072;BME280;74284;52.610;10.236;2023-11-21T08:54:56;101118.94;;;8.57;nan
49072;BME280;74284;52.610;10.236;2023-11-21T08:57:22;101128.56;;;8.59;nan
49072;BME280;74284;52.610;10.236;2023-11-21T08:59:48;101135.06;;;8.07;nan
49072;BME280;74284;52.610;10.236;2023-11-21T09:02:13;101125.56;;;8.37;nan
49072;BME280;74284;52.610;10.236;2023-11-21T09:04:38;101128.63;;;8.56;nan
49072;BME280;74284;52.610;10.236;2023-11-21T09:07:04;101135.16;;;8.76;nan
49072;BME280;74284;52.610;10.236;2023-11-21T09:09:29;101131.50;;;8.81;nan
49072;BME280;74284;52.610;10.236;2023-11-21T09:11:55;101139.56;;;8.77;nan
49072;BME280;74284;52.610;10.236;2023-11-21T09:14:20;101145.25;;;8.94;nan
49072;BME280;74284;52.610;10.236;2023-11-21T09:16:45;101146.22;;;8.91;nan
49072;BME280;74284;52.610;10.236;2023-11-21T09:19:12;101153.81;;;8.70;nan
49072;BME280;74284;52.610;10.236;2023-11-21T09:21:39;101158.97;;;8.74;nan
49072;BME280;74284;52.610;10.236;2023-11-21T09:24:04;101163.78;;;8.58;nan
49072;BME280;74284;52.610;10.236;2023-11-21T09:26:30;101173.03;;;8.40;nan
49072;BME280;74284;52.610;10.236;2023-11-21T09:28:55;101171.28;;;8.75;nan
49072;BME280;74284;52.610;10.236;2023-11-21T09:31:21;101173.03;;;8.39;nan
49072;BME280;74284;52.610;10.236;2023-11-21T09:33:48;101170.06;;;8.53;nan
49072;BME280;74284;52.610;10.236;2023-11-21T09:36:13;101183.34;;;8.85;nan
49072;BME280;74284;52.610;10.236;2023-11-21T09:38:40;101191.25;;;8.85;nan
49072;BME280;74284;52.610;10.236;2023-11-21T09:41:12;101182.81;;;9.38;nan
49072;BME280;74284;52.610;10.236;2023-11-21T09:43:43;101198.59;;;8.74;nan
49072;BME280;74284;52.610;10.236;2023-11-21T09:46:12;101200.00;;;9.54;nan
49072;BME280;74284;52.610;10.236;2023-11-21T09:48:47;101199.75;;;8.98;nan
49072;BME280;74284;52.610;10.236;2023-11-21T09:51:15;101202.75;;;9.18;nan
49072;BME280;74284;52.610;10.236;2023-11-21T09:53:44;101203.19;;;9.34;nan
49072;BME280;74284;52.610;10.236;2023-11-21T09:56:11;101210.28;;;9.65;nan
49072;BME280;74284;52.610;10.236;2023-11-21T09:58:37;101220.03;;;9.30;nan
49072;BME280;74284;52.610;10.236;2023-11-21T10:01:03;101224.38;;;8.99;nan
49072;BME280;74284;52.610;10.236;2023-11-21T10:03:35;101223.72;;;9.25;nan
49072;BME280;74284;52.610;10.236;2023-11-21T10:06:02;101232.13;;;9.06;nan
49072;BME280;74284;52.610;10.236;2023-11-21T10:08:29;101230.84;;;9.23;nan
49072;BME280;74284;52.610;10.236;2023-11-21T10:10:55;101228.44;;;9.13;nan
49072;BME280;74284;52.610;10.236;2023-11-21T10:13:20;101236.25;;;9.18;nan
49072;BME280;74284;52.610;10.236;2023-11-21T10:15:51;101239.81;;;8.81;nan
49072;BME280;74284;52.610;10.236;2023-11-21T10:18:17;101240.66;;;9.83;nan
49072;BME280;74284;52.610;10.236;2023-11-21T10:20:42;101234.94;;;9.65;nan
49072;BME280;74284;52.610;10.236;2023-11-21T10:23:10;101236.38;;;9.46;nan
49072;BME280;74284;52.610;10.236;2023-11-21T10:25:37;101235.22;;;9.87;nan
49072;BME280;74284;52.610;10.236;2023-11-21T10:28:03;101244.41;;;9.09;nan
49072;BME280;74284;52.610;10.236;2023-11-21T10:30:36;101236.63;;;9.37;nan
49072;BME280;74284;52.610;10.236;2023-11-21T10:33:02;101243.13;;;9.89;nan
49072;BME280;74284;52.610;10.236;2023-11-21T10:35:47;101247.56;;;9.23;nan
49072;BME280;74284;52.610;10.236;2023-11-21T10:38:18;101247.22;;;9.35;nan
49072;BME280;74284;52.610;10.236;2023-11-21T10:40:46;101245.31;;;9.73;nan
49072;BME280;74284;52.610;10.236;2023-11-21T10:43:13;101247.38;;;9.62;nan
49072;BME280;74284;52.610;10.236;2023-11-21T10:45:40;101256.56;;;9.81;nan
49072;BME280;74284;52.610;10.236;2023-11-21T10:48:06;101256.28;;;9.92;nan
49072;BME280;74284;52.610;10.236;2023-11-21T10:50:33;101255.59;;;10.15;nan
49072;BME280;74284;52.610;10.236;2023-11-21T10:53:04;101264.88;;;9.67;nan
49072;BME280;74284;52.610;10.236;2023-11-21T10:55:30;101261.19;;;10.34;nan
49072;BME280;74284;52.610;10.236;2023-11-21T10:57:59;101267.78;;;9.89;nan
49072;BME280;74284;52.610;10.236;2023-11-21T11:00:26;101272.44;;;9.81;nan
49072;BME280;74284;52.610;10.236;2023-11-21T11:02:52;101256.69;;;10.37;nan
49072;BME280;74284;52.610;10.236;2023-11-21T11:05:22;101274.13;;;9.51;nan
49072;BME280;74284;52.610;10.236;2023-11-21T11:07:59;101270.63;;;9.51;nan
49072;BME280;74284;52.610;10.236;2023-11-21T11:10:30;101271.34;;;9.88;nan
49072;BME280;74284;52.610;10.236;2023-11-21T11:12:56;101277.97;;;10.03;nan
49072;BME280;74284;52.610;10.236;2023-11-21T11:15:23;101276.19;;;10.05;nan
49072;BME280;74284;52.610;10.236;2023-11-21T11:17:49;101275.34;;;10.03;nan
49072;BME280;74284;52.610;10.236;2023-11-21T11:20:16;101277.50;;;9.89;nan
49072;BME280;74284;52.610;10.236;2023-11-21T11:22:50;101275.59;;;9.96;nan
49072;BME280;74284;52.610;10.236;2023-11-21T11:25:38;101274.56;;;10.59;nan
49072;BME280;74284;52.610;10.236;2023-11-21T11:28:17;101273.13;;;10.19;nan
49072;BME280;74284;52.610;10.236;2023-11-21T11:36:10;101287.91;;;10.26;nan
49072;BME280;74284;52.610;10.236;2023-11-21T11:38:38;101289.19;;;9.80;nan
49072;BME280;74284;52.610;10.236;2023-11-21T11:41:07;101295.72;;;9.68;nan
49072;BME280;74284;52.610;10.236;2023-11-21T11:43:34;101305.88;;;9.51;nan
49072;BME280;74284;52.610;10.236;2023-11-21T11:46:09;101308.28;;;9.93;nan
49072;BME280;74284;52.610;10.236;2023-11-21T11:48:39;101312.88;;;9.86;nan
49072;BME280;74284;52.610;10.236;2023-11-21T11:51:11;101316.69;;;9.75;nan
49072;BME280;74284;52.610;10.236;2023-11-21T11:53:40;101315.88;;;9.73;nan
49072;BME280;74284;52.610;10.236;2023-11-21T11:56:19;101320.63;;;9.60;nan
49072;BME280;74284;52.610;10.236;2023-11-21T11:58:51;101314.16;;;10.04;nan
49072;BME280;74284;52.610;10.236;2023-11-21T12:01:20;101328.31;;;9.69;nan
49072;BME280;74284;52.610;10.236;2023-11-21T12:06:41;101317.59;;;10.06;nan
49072;BME280;74284;52.610;10.236;2023-11-21T12:09:21;101323.31;;;9.58;nan
49072;BME280;74284;52.610;10.236;2023-11-21T12:11:48;101335.94;;;9.81;nan
49072;BME280;74284;52.610;10.236;2023-11-21T12:14:14;101343.16;;;9.05;nan
49072;BME280;74284;52.610;10.236;2023-11-21T12:16:40;101348.28;;;9.11;nan
49072;BME280;74284;52.610;10.236;2023-11-21T12:19:06;101355.41;;;8.70;nan
49072;BME280;74284;52.610;10.236;2023-11-21T12:21:32;101354.81;;;9.67;nan
49072;BME280;74284;52.610;10.236;2023-11-21T12:23:58;101355.84;;;9.96;nan
49072;BME280;74284;52.610;10.236;2023-11-21T12:26:26;101365.56;;;9.96;nan
49072;BME280;74284;52.610;10.236;2023-11-21T12:28:53;101374.41;;;9.25;nan
49072;BME280;74284;52.610;10.236;2023-11-21T12:31:24;101365.81;;;9.86;nan
49072;BME280;74284;52.610;10.236;2023-11-21T12:33:50;101370.31;;;9.81;nan
49072;BME280;74284;52.610;10.236;2023-11-21T12:36:16;101371.78;;;9.59;nan
49072;BME280;74284;52.610;10.236;2023-11-21T12:38:41;101375.25;;;9.61;nan
49072;BME280;74284;52.610;10.236;2023-11-21T12:41:07;101376.16;;;9.94;nan
49072;BME280;74284;52.610;10.236;2023-11-21T12:43:33;101383.38;;;9.89;nan
49072;BME280;74284;52.610;10.236;2023-11-21T12:46:07;101378.25;;;9.81;nan
49072;BME280;74284;52.610;10.236;2023-11-21T12:48:39;101386.06;;;9.87;nan
49072;BME280;74284;52.610;10.236;2023-11-21T12:51:08;101381.00;;;10.11;nan
49072;BME280;74284;52.610;10.236;2023-11-21T12:53:35;101383.72;;;10.08;nan
49072;BME280;74284;52.610;10.236;2023-11-21T12:56:07;101384.03;;;9.97;nan
49072;BME280;74284;52.610;10.236;2023-11-21T12:58:35;101379.81;;;10.23;nan
49072;BME280;74284;52.610;10.236;2023-11-21T13:01:01;101389.19;;;10.02;nan
49072;BME280;74284;52.610;10.236;2023-11-21T13:03:29;101393.69;;;10.31;nan
49072;BME280;74284;52.610;10.236;2023-11-21T13:05:55;101396.59;;;10.53;nan
49072;BME280;74284;52.610;10.236;2023-11-21T13:08:23;101396.09;;;10.07;nan
49072;BME280;74284;52.610;10.236;2023-11-21T13:10:51;101399.66;;;10.06;nan
49072;BME280;74284;52.610;10.236;2023-11-21T13:13:16;101398.88;;;9.67;nan